createdAt,value
2022-11-18T00:00:56.147Z,5.47
2022-11-18T00:03:23.075Z,5.63
2022-11-18T00:05:57.302Z,6.00
2022-11-18T00:08:25.388Z,7.83
2022-11-18T00:10:52.824Z,3.93
2022-11-18T00:13:38.568Z,4.00
2022-11-18T00:16:11.583Z,5.57
2022-11-18T00:18:39.250Z,9.10
2022-11-18T00:21:10.117Z,4.83
2022-11-18T00:23:36.877Z,5.97
2022-11-18T00:26:14.025Z,6.97
2022-11-18T00:28:42.040Z,6.03
2022-11-18T00:31:13.588Z,4.87
2022-11-18T00:33:40.812Z,6.50
2022-11-18T00:36:10.637Z,6.73
2022-11-18T00:38:38.205Z,9.80
2022-11-18T00:41:07.819Z,7.60
2022-11-18T00:43:35.344Z,7.27
2022-11-18T00:46:02.611Z,5.60
2022-11-18T00:48:29.421Z,5.93
2022-11-18T00:50:58.192Z,6.07
2022-11-18T00:53:26.787Z,5.83
2022-11-18T00:55:54.271Z,5.90
2022-11-18T00:58:21.548Z,4.97
2022-11-18T01:00:51.858Z,5.23
2022-11-18T01:03:19.973Z,7.03
2022-11-18T01:05:47.099Z,5.40
2022-11-18T01:08:14.778Z,5.17
2022-11-18T01:10:42.039Z,9.23
2022-11-18T01:13:19.758Z,5.33
2022-11-18T01:15:54.116Z,11.00
2022-11-18T01:18:24.425Z,6.47
2022-11-18T01:20:51.540Z,5.93
2022-11-18T01:23:19.782Z,6.93
2022-11-18T01:25:48.789Z,4.10
2022-11-18T01:28:21.980Z,5.73
2022-11-18T01:30:50.635Z,5.63
2022-11-18T01:33:17.442Z,8.60
2022-11-18T01:35:44.889Z,7.50
2022-11-18T01:38:13.937Z,7.13
2022-11-18T01:40:41.741Z,6.43
2022-11-18T01:43:17.961Z,6.60
2022-11-18T01:45:47.249Z,6.90
2022-11-18T01:48:26.354Z,6.00
2022-11-18T01:51:02.521Z,5.00
2022-11-18T01:53:42.914Z,8.93
2022-11-18T01:56:16.976Z,6.30
2022-11-18T01:58:56.963Z,6.60
2022-11-18T02:01:24.102Z,8.37
2022-11-18T02:03:52.898Z,7.53
2022-11-18T02:06:19.748Z,5.47
2022-11-18T02:08:48.395Z,6.07
2022-11-18T02:11:34.213Z,4.90
2022-11-18T02:14:03.996Z,6.33
2022-11-18T02:17:04.752Z,5.43
2022-11-18T02:19:47.495Z,5.70
2022-11-18T02:22:29.162Z,5.57
2022-11-18T02:24:56.511Z,6.43
2022-11-18T02:28:00.793Z,8.40
2022-11-18T02:30:32.894Z,3.93
2022-11-18T02:33:08.102Z,5.13
2022-11-18T02:35:52.415Z,5.67
2022-11-18T02:38:19.509Z,8.50
2022-11-18T02:40:52.398Z,7.97
2022-11-18T02:43:27.931Z,6.77
2022-11-18T02:46:00.171Z,5.70
2022-11-18T02:48:30.721Z,5.70
2022-11-18T02:51:00.409Z,4.57
2022-11-18T02:53:29.587Z,4.33
2022-11-18T02:55:57.176Z,7.13
2022-11-18T02:58:25.834Z,8.00
2022-11-18T03:00:57.846Z,9.13
2022-11-18T03:03:36.176Z,6.97
2022-11-18T03:06:12.415Z,5.47
2022-11-18T03:08:50.478Z,8.93
2022-11-18T03:11:26.795Z,5.87
2022-11-18T03:14:08.223Z,9.00
2022-11-18T03:17:03.832Z,7.20
2022-11-18T03:20:05.831Z,5.97
2022-11-18T03:22:54.644Z,6.40
2022-11-18T03:25:51.300Z,5.33
2022-11-18T03:28:22.892Z,4.73
2022-11-18T03:31:02.864Z,5.93
2022-11-18T03:33:35.754Z,5.80
2022-11-18T03:36:06.858Z,4.33
2022-11-18T03:38:42.438Z,7.17
2022-11-18T03:41:11.771Z,4.53
2022-11-18T03:43:44.973Z,6.70
2022-11-18T03:46:23.150Z,7.43
2022-11-18T03:48:54.261Z,6.33
2022-11-18T03:51:26.398Z,8.47
2022-11-18T03:54:02.575Z,7.07
2022-11-18T03:56:37.853Z,7.90
2022-11-18T03:59:20.572Z,5.57
2022-11-18T04:01:53.456Z,5.50
2022-11-18T04:04:21.773Z,6.53
2022-11-18T04:07:05.407Z,6.40
2022-11-18T04:09:42.787Z,10.40
2022-11-18T04:12:14.155Z,6.33
2022-11-18T04:14:43.920Z,8.07
2022-11-18T04:17:17.594Z,8.23
2022-11-18T04:19:44.291Z,5.53
2022-11-18T04:22:11.292Z,5.87
2022-11-18T04:24:38.316Z,4.43
2022-11-18T04:27:05.774Z,5.90
2022-11-18T04:29:33.679Z,6.30
2022-11-18T04:32:01.612Z,7.70
2022-11-18T04:34:28.762Z,6.67
2022-11-18T04:36:56.167Z,4.77
2022-11-18T04:39:23.072Z,4.57
2022-11-18T04:41:55.656Z,5.20
2022-11-18T04:44:28.225Z,7.23
2022-11-18T04:46:56.768Z,6.70
2022-11-18T04:49:24.441Z,7.30
2022-11-18T04:51:52.134Z,5.23
2022-11-18T04:54:19.867Z,9.03
2022-11-18T04:56:49.363Z,5.83
2022-11-18T04:59:19.659Z,8.83
2022-11-18T05:01:47.469Z,7.03
2022-11-18T05:04:16.701Z,8.20
2022-11-18T05:06:43.911Z,7.57
2022-11-18T05:09:11.063Z,5.50
2022-11-18T05:11:56.440Z,7.10
2022-11-18T05:14:26.879Z,10.47
2022-11-18T05:16:54.521Z,5.10
2022-11-18T05:19:21.237Z,8.00
2022-11-18T05:21:48.128Z,6.43
2022-11-18T05:24:15.164Z,8.77
2022-11-18T05:26:42.237Z,7.20
2022-11-18T05:29:09.528Z,5.27
2022-11-18T05:31:36.669Z,7.67
2022-11-18T05:34:03.894Z,5.83
2022-11-18T05:36:31.253Z,8.93
2022-11-18T05:39:01.392Z,7.57
2022-11-18T05:41:46.790Z,10.30
2022-11-18T05:44:13.472Z,9.70
2022-11-18T05:46:40.172Z,7.33
2022-11-18T05:49:07.736Z,5.47
2022-11-18T05:51:35.300Z,8.00
2022-11-18T05:54:06.446Z,5.97
2022-11-18T05:56:39.051Z,7.60
2022-11-18T05:59:06.818Z,9.13
2022-11-18T06:01:51.189Z,6.13
2022-11-18T06:04:24.036Z,8.23
2022-11-18T06:06:54.643Z,9.57
2022-11-18T06:09:25.753Z,7.33
2022-11-18T06:11:56.822Z,6.80
2022-11-18T06:14:30.377Z,4.93
2022-11-18T06:17:02.051Z,8.23
2022-11-18T06:19:29.195Z,7.23
2022-11-18T06:21:56.469Z,6.90
2022-11-18T06:24:23.842Z,4.73
2022-11-18T06:26:51.078Z,8.57
2022-11-18T06:29:26.018Z,9.67
2022-11-18T06:31:54.743Z,8.47
2022-11-18T06:34:21.842Z,10.80
2022-11-18T06:36:48.954Z,7.10
2022-11-18T06:39:15.949Z,8.63
2022-11-18T06:41:43.252Z,10.83
2022-11-18T06:44:11.812Z,9.23
2022-11-18T06:46:56.596Z,7.20
2022-11-18T06:49:28.050Z,5.90
2022-11-18T06:51:55.052Z,6.57
2022-11-18T06:54:22.246Z,6.73
2022-11-18T06:56:48.990Z,7.00
2022-11-18T06:59:21.547Z,7.13
2022-11-18T07:01:48.231Z,6.37
2022-11-18T07:04:14.921Z,7.57
2022-11-18T07:06:41.999Z,5.90
2022-11-18T07:09:08.901Z,4.53
2022-11-18T07:11:38.149Z,5.10
2022-11-18T07:14:04.812Z,6.93
2022-11-18T07:16:31.526Z,7.10
2022-11-18T07:18:58.649Z,7.63
2022-11-18T07:21:29.509Z,9.47
2022-11-18T07:23:56.898Z,9.90
2022-11-18T07:26:23.909Z,8.27
2022-11-18T07:28:51.022Z,6.07
2022-11-18T07:31:20.448Z,8.60
2022-11-18T07:33:48.141Z,9.67
2022-11-18T07:36:20.449Z,5.97
2022-11-18T07:38:47.926Z,8.47
2022-11-18T07:41:20.659Z,6.47
2022-11-18T07:43:48.203Z,7.47
2022-11-18T07:46:21.943Z,8.90
2022-11-18T07:48:50.653Z,7.27
2022-11-18T07:51:20.073Z,8.20
2022-11-18T07:53:47.172Z,8.13
2022-11-18T07:56:14.736Z,7.27
2022-11-18T07:58:42.465Z,8.33
2022-11-18T08:01:14.532Z,8.17
2022-11-18T08:03:42.091Z,8.63
2022-11-18T08:06:11.212Z,6.67
2022-11-18T08:08:38.815Z,9.03
2022-11-18T08:11:08.097Z,7.47
2022-11-18T08:13:35.769Z,5.60
2022-11-18T08:16:03.917Z,7.67
2022-11-18T08:18:32.471Z,7.73
2022-11-18T08:21:05.574Z,7.83
2022-11-18T08:23:35.135Z,8.87
2022-11-18T08:26:06.777Z,7.27
2022-11-18T08:28:33.802Z,7.53
2022-11-18T08:31:00.624Z,5.53
2022-11-18T08:33:27.688Z,8.10
2022-11-18T08:35:54.788Z,7.07
2022-11-18T08:38:21.924Z,5.33
2022-11-18T08:40:48.640Z,8.40
2022-11-18T08:43:15.734Z,7.13
2022-11-18T08:45:42.478Z,7.20
2022-11-18T08:48:09.190Z,7.13
2022-11-18T08:50:36.301Z,7.33
2022-11-18T08:53:03.585Z,7.03
2022-11-18T08:55:30.317Z,8.03
2022-11-18T08:57:56.976Z,7.40
2022-11-18T09:00:23.798Z,9.30
2022-11-18T09:02:50.654Z,5.70
2022-11-18T09:05:17.496Z,9.53
2022-11-18T09:07:44.189Z,7.07
2022-11-18T09:10:11.005Z,6.37
2022-11-18T09:12:37.828Z,7.13
2022-11-18T09:15:13.958Z,8.47
2022-11-18T09:17:41.437Z,9.37
2022-11-18T09:20:08.767Z,6.67
2022-11-18T09:22:37.772Z,7.43
2022-11-18T09:25:05.045Z,6.43
2022-11-18T09:27:31.691Z,7.43
2022-11-18T09:29:58.393Z,9.37
2022-11-18T09:32:25.522Z,10.00
2022-11-18T09:34:52.188Z,7.40
2022-11-18T09:37:19.095Z,5.93
2022-11-18T09:39:46.219Z,6.37
2022-11-18T09:42:26.468Z,8.20
2022-11-18T09:45:14.543Z,5.73
2022-11-18T09:47:41.401Z,7.87
2022-11-18T09:53:23.531Z,12.17
2022-11-18T09:55:52.214Z,7.10
2022-11-18T09:58:29.024Z,4.97
2022-11-18T10:00:56.133Z,7.60
2022-11-18T10:03:23.202Z,8.93
2022-11-18T10:06:04.506Z,10.27
2022-11-18T10:08:55.702Z,6.80
2022-11-18T10:11:26.591Z,5.53
2022-11-18T10:14:14.143Z,7.23
2022-11-18T10:16:50.868Z,8.73
2022-11-18T10:19:22.360Z,6.93
2022-11-18T10:22:19.503Z,3.70
2022-11-18T10:24:53.572Z,5.77
2022-11-18T10:27:21.689Z,5.73
2022-11-18T10:29:53.250Z,5.87
2022-11-18T10:32:20.220Z,6.37
2022-11-18T10:34:53.384Z,5.63
2022-11-18T10:37:52.508Z,7.03
2022-11-18T10:40:16.639Z,7.20
2022-11-18T10:42:47.891Z,4.87
2022-11-18T10:45:29.026Z,5.33
2022-11-18T10:48:10.011Z,4.53
2022-11-18T10:50:43.893Z,7.13
2022-11-18T10:53:25.792Z,4.87
2022-11-18T10:56:14.031Z,7.47
2022-11-18T10:58:47.521Z,5.03
2022-11-18T11:01:14.723Z,5.37
2022-11-18T11:03:43.299Z,5.87
2022-11-18T11:06:33.996Z,7.00
2022-11-18T11:09:04.285Z,7.63
2022-11-18T11:11:32.617Z,5.63
2022-11-18T11:14:17.378Z,6.40
2022-11-18T11:16:53.866Z,4.77
2022-11-18T11:19:25.297Z,5.53
2022-11-18T11:21:52.138Z,5.07
2022-11-18T11:24:20.101Z,6.53
2022-11-18T11:29:54.609Z,4.90
2022-11-18T11:32:39.283Z,4.97
2022-11-18T11:35:43.480Z,4.93
2022-11-18T11:38:25.881Z,5.07
2022-11-18T11:41:22.316Z,5.53
2022-11-18T11:44:09.289Z,7.60
2022-11-18T11:47:32.485Z,5.10
2022-11-18T11:51:00.070Z,6.53
2022-11-18T11:53:49.545Z,6.20
2022-11-18T11:56:49.943Z,6.00
2022-11-18T11:59:17.393Z,7.17
2022-11-18T12:01:49.919Z,6.17
2022-11-18T12:04:46.707Z,7.93
2022-11-18T12:07:26.726Z,4.67
2022-11-18T12:10:14.827Z,6.10
2022-11-18T12:13:02.125Z,9.07
2022-11-18T12:15:46.882Z,6.57
2022-11-18T12:18:32.805Z,6.63
2022-11-18T12:20:59.470Z,8.77
2022-11-18T12:23:28.862Z,8.63
2022-11-18T12:25:57.161Z,10.30
2022-11-18T12:28:41.890Z,10.07
2022-11-18T12:31:20.678Z,5.60
2022-11-18T12:34:02.447Z,5.43
2022-11-18T12:36:29.074Z,5.93
2022-11-18T12:38:56.921Z,8.10
2022-11-18T12:42:00.088Z,5.97
2022-11-18T12:44:29.056Z,9.73
2022-11-18T12:47:00.524Z,6.23
2022-11-18T12:49:47.551Z,7.70
2022-11-18T12:52:29.569Z,5.77
2022-11-18T12:54:59.768Z,9.97
2022-11-18T12:57:34.735Z,9.93
2022-11-18T13:00:24.869Z,8.03
2022-11-18T13:02:56.969Z,10.60
2022-11-18T13:05:25.251Z,7.87
2022-11-18T13:08:14.724Z,5.43
2022-11-18T13:10:50.541Z,6.73
2022-11-18T13:13:29.062Z,8.57
2022-11-18T13:16:23.689Z,9.67
2022-11-18T13:18:54.289Z,5.63
2022-11-18T13:21:45.725Z,4.70
2022-11-18T13:24:18.231Z,7.13
2022-11-18T13:26:46.538Z,7.97
2022-11-18T13:29:22.450Z,7.30
2022-11-18T13:32:04.804Z,6.20
2022-11-18T13:34:37.878Z,4.07
2022-11-18T13:37:19.930Z,5.73
2022-11-18T13:39:49.262Z,6.07
2022-11-18T13:42:20.780Z,6.03
2022-11-18T13:44:58.779Z,5.10
2022-11-18T13:47:40.037Z,6.70
2022-11-18T13:50:31.098Z,8.97
2022-11-18T13:53:20.117Z,8.20
2022-11-18T13:56:16.248Z,9.33
2022-11-18T14:01:38.442Z,8.10
2022-11-18T14:04:06.778Z,5.77
2022-11-18T14:06:36.038Z,6.27
2022-11-18T14:09:25.958Z,7.63
2022-11-18T14:12:00.345Z,6.23
2022-11-18T14:14:35.735Z,8.47
2022-11-18T14:17:18.356Z,8.00
2022-11-18T14:19:46.545Z,7.03
2022-11-18T14:22:27.688Z,5.10
2022-11-18T14:25:02.544Z,6.33
2022-11-18T14:27:29.256Z,6.07
2022-11-18T14:29:56.194Z,5.80
2022-11-18T14:32:23.497Z,6.40
2022-11-18T14:35:02.490Z,4.83
2022-11-18T14:37:30.350Z,5.40
2022-11-18T14:39:58.042Z,7.33
2022-11-18T14:42:25.216Z,9.17
2022-11-18T14:44:52.002Z,5.50
2022-11-18T14:47:26.014Z,7.33
2022-11-18T14:49:53.167Z,5.77
2022-11-18T14:52:20.363Z,8.43
2022-11-18T14:54:47.548Z,4.40
2022-11-18T14:57:16.913Z,5.23
2022-11-18T14:59:43.862Z,5.90
2022-11-18T15:02:16.574Z,6.17
2022-11-18T15:04:43.643Z,11.00
2022-11-18T15:07:18.530Z,9.53
2022-11-18T15:09:49.757Z,4.40
2022-11-18T15:12:17.632Z,7.70
2022-11-18T15:14:44.409Z,6.50
2022-11-18T15:17:12.568Z,6.97
2022-11-18T15:19:40.957Z,5.40
2022-11-18T15:22:08.057Z,7.93
2022-11-18T15:24:34.844Z,3.40
2022-11-18T15:27:05.261Z,5.93
2022-11-18T15:29:32.224Z,6.93
2022-11-18T15:32:00.088Z,4.67
2022-11-18T15:34:27.332Z,7.60
2022-11-18T15:36:54.492Z,13.03
2022-11-18T15:39:21.497Z,8.07
2022-11-18T15:41:48.636Z,6.40
2022-11-18T15:44:16.235Z,7.70
2022-11-18T15:46:45.389Z,7.47
2022-11-18T15:49:14.667Z,6.93
2022-11-18T15:51:41.586Z,5.40
2022-11-18T15:54:08.748Z,8.73
2022-11-18T15:56:35.964Z,9.43
2022-11-18T15:59:09.211Z,9.50
2022-11-18T16:01:41.390Z,7.87
2022-11-18T16:04:10.134Z,7.50
2022-11-18T16:06:37.376Z,6.97
2022-11-18T16:09:06.132Z,9.80
2022-11-18T16:11:51.940Z,7.27
2022-11-18T16:14:21.090Z,9.87
2022-11-18T16:16:50.351Z,7.77
2022-11-18T16:19:19.928Z,9.03
2022-11-18T16:21:49.319Z,8.93
2022-11-18T16:24:22.137Z,7.47
2022-11-18T16:26:49.748Z,7.60
2022-11-18T16:29:17.980Z,8.43
2022-11-18T16:31:50.621Z,7.87
2022-11-18T16:34:23.021Z,7.47
2022-11-18T16:36:52.169Z,8.53
2022-11-18T16:39:29.052Z,8.17
2022-11-18T16:42:06.455Z,9.00
2022-11-18T16:44:35.016Z,6.37
2022-11-18T16:47:02.007Z,6.43
2022-11-18T16:49:29.183Z,7.63
2022-11-18T16:51:56.963Z,9.63
2022-11-18T16:54:31.593Z,7.87
2022-11-18T16:56:59.713Z,6.37
2022-11-18T16:59:28.858Z,7.53
2022-11-18T17:01:57.226Z,10.07
2022-11-18T17:04:25.573Z,7.93
2022-11-18T17:06:53.333Z,8.90
2022-11-18T17:09:22.857Z,10.30
2022-11-18T17:11:50.894Z,9.40
2022-11-18T17:14:19.445Z,9.37
2022-11-18T17:16:46.135Z,12.40
2022-11-18T17:19:18.729Z,8.23
2022-11-18T17:21:46.097Z,7.23
2022-11-18T17:24:19.353Z,11.67
2022-11-18T17:26:47.409Z,5.83
2022-11-18T17:29:14.965Z,8.80
2022-11-18T17:31:42.498Z,5.60
2022-11-18T17:34:13.855Z,6.77
2022-11-18T17:36:41.361Z,5.47
2022-11-18T17:39:10.768Z,6.00
2022-11-18T17:41:55.902Z,10.13
2022-11-18T17:44:23.042Z,8.77
2022-11-18T17:46:50.000Z,4.93
2022-11-18T17:49:18.341Z,8.00
2022-11-18T17:51:48.469Z,7.27
2022-11-18T17:54:15.973Z,6.53
2022-11-18T17:56:43.466Z,7.17
2022-11-18T17:59:10.591Z,22.07
2022-11-18T18:01:37.756Z,41.80
2022-11-18T18:04:04.651Z,27.93
2022-11-18T18:06:31.720Z,17.50
2022-11-18T18:08:58.924Z,9.43
2022-11-18T18:11:26.767Z,12.33
2022-11-18T18:14:12.313Z,18.63
2022-11-18T18:16:48.407Z,11.47
2022-11-18T18:19:18.092Z,11.90
2022-11-18T18:21:45.624Z,12.30
2022-11-18T18:24:15.197Z,10.37
2022-11-18T18:26:42.430Z,11.00
2022-11-18T18:29:09.189Z,12.30
2022-11-18T18:31:36.609Z,11.50
2022-11-18T18:34:04.303Z,10.37
2022-11-18T18:36:31.417Z,12.07
2022-11-18T18:38:59.040Z,9.37
2022-11-18T18:41:26.141Z,16.13
2022-11-18T18:43:53.188Z,14.00
2022-11-18T18:46:28.626Z,15.83
2022-11-18T18:49:09.873Z,15.27
2022-11-18T18:51:37.937Z,12.63
2022-11-18T18:54:05.322Z,12.50
2022-11-18T18:56:32.919Z,12.00
2022-11-18T18:59:00.366Z,13.10
2022-11-18T19:01:28.262Z,13.27
2022-11-18T19:04:02.638Z,11.27
2022-11-18T19:06:58.460Z,11.83
2022-11-18T19:09:22.541Z,7.57
2022-11-18T19:12:08.087Z,7.97
2022-11-18T19:14:35.489Z,8.17
2022-11-18T19:17:09.626Z,8.17
2022-11-18T19:19:57.082Z,8.83
2022-11-18T19:22:24.419Z,6.10
2022-11-18T19:24:51.523Z,8.23
2022-11-18T19:27:19.188Z,5.93
2022-11-18T19:29:46.371Z,8.43
2022-11-18T19:32:13.412Z,8.07
2022-11-18T19:34:40.132Z,9.20
2022-11-18T19:37:07.174Z,12.87
2022-11-18T19:39:35.171Z,12.83
2022-11-18T19:42:01.882Z,11.87
2022-11-18T19:44:28.642Z,19.17
2022-11-18T19:46:55.705Z,18.63
2022-11-18T19:49:23.002Z,20.97
2022-11-18T19:51:50.056Z,20.33
2022-11-18T19:54:16.725Z,22.43
2022-11-18T19:56:43.900Z,16.93
2022-11-18T19:59:12.572Z,13.03
2022-11-18T20:01:39.974Z,12.37
2022-11-18T20:04:07.138Z,11.00
2022-11-18T20:06:35.891Z,13.80
2022-11-18T20:09:06.030Z,13.10
2022-11-18T20:11:33.124Z,12.60
2022-11-18T20:14:00.194Z,11.67
2022-11-18T20:16:27.334Z,10.73
2022-11-18T20:18:56.811Z,15.00
2022-11-18T20:21:24.883Z,11.37
2022-11-18T20:23:55.072Z,16.13
2022-11-18T20:26:23.611Z,13.20
2022-11-18T20:28:56.024Z,16.63
2022-11-18T20:31:25.164Z,12.07
2022-11-18T20:33:53.376Z,10.60
2022-11-18T20:36:22.687Z,13.77
2022-11-18T20:38:52.171Z,14.67
2022-11-18T20:41:20.023Z,11.60
2022-11-18T20:43:48.112Z,14.57
2022-11-18T20:46:20.325Z,12.63
2022-11-18T20:48:48.028Z,14.40
2022-11-18T20:51:17.158Z,9.87
2022-11-18T20:53:44.641Z,10.87
2022-11-18T20:56:14.622Z,10.57
2022-11-18T20:58:41.971Z,13.50
2022-11-18T21:01:12.973Z,10.43
2022-11-18T21:03:40.956Z,10.53
2022-11-18T21:06:13.952Z,13.43
2022-11-18T21:08:42.549Z,12.97
2022-11-18T21:11:11.498Z,10.90
2022-11-18T21:13:57.720Z,8.27
2022-11-18T21:16:25.362Z,10.93
2022-11-18T21:18:52.234Z,11.57
2022-11-18T21:21:37.315Z,13.47
2022-11-18T21:24:04.318Z,12.13
2022-11-18T21:26:32.893Z,9.47
2022-11-18T21:29:02.114Z,10.33
2022-11-18T21:31:29.720Z,9.17
2022-11-18T21:33:57.057Z,9.87
2022-11-18T21:36:25.832Z,8.77
2022-11-18T21:38:52.993Z,11.60
2022-11-18T21:41:20.363Z,9.40
2022-11-18T21:46:35.250Z,8.67
2022-11-18T21:49:02.698Z,10.40
2022-11-18T21:51:31.488Z,8.73
2022-11-18T21:53:59.139Z,11.90
2022-11-18T21:56:33.381Z,8.60
2022-11-18T21:59:01.602Z,8.33
2022-11-18T22:01:30.529Z,9.50
2022-11-18T22:03:59.442Z,11.07
2022-11-18T22:06:29.718Z,10.13
2022-11-18T22:08:56.591Z,11.83
2022-11-18T22:11:24.111Z,9.37
2022-11-18T22:13:52.018Z,8.57
2022-11-18T22:16:22.001Z,6.77
2022-11-18T22:18:55.976Z,9.20
2022-11-18T22:21:23.527Z,12.00
2022-11-18T22:23:50.284Z,10.00
2022-11-18T22:26:19.554Z,9.53
2022-11-18T22:28:47.653Z,12.73
2022-11-18T22:31:16.757Z,12.57
2022-11-18T22:33:43.886Z,10.07
2022-11-18T22:36:15.222Z,9.97
2022-11-18T22:38:43.391Z,10.60
2022-11-18T22:41:30.838Z,11.50
2022-11-18T22:44:00.421Z,11.87
2022-11-18T22:46:31.083Z,11.93
2022-11-18T22:48:58.519Z,12.67
2022-11-18T22:51:26.009Z,12.50
2022-11-18T22:54:09.773Z,13.57
2022-11-18T22:56:39.837Z,11.87
2022-11-18T22:59:06.763Z,9.73
2022-11-18T23:01:33.518Z,8.93
2022-11-18T23:04:00.257Z,10.73
2022-11-18T23:06:27.415Z,8.97
2022-11-18T23:08:54.525Z,11.20
2022-11-18T23:11:40.632Z,10.73
2022-11-18T23:14:10.810Z,12.77
2022-11-18T23:16:42.576Z,11.73
2022-11-18T23:19:14.640Z,10.63
2022-11-18T23:21:42.318Z,12.53
2022-11-18T23:24:17.316Z,12.10
2022-11-18T23:26:44.557Z,10.47
2022-11-18T23:29:12.479Z,9.87
2022-11-18T23:31:44.048Z,11.00
2022-11-18T23:34:12.434Z,10.77
2022-11-18T23:36:40.043Z,9.77
2022-11-18T23:39:07.528Z,10.97
2022-11-18T23:41:34.373Z,10.80
2022-11-18T23:44:01.515Z,9.17
2022-11-18T23:46:28.381Z,10.03
2022-11-18T23:48:55.718Z,8.90
2022-11-18T23:51:24.058Z,10.20
2022-11-18T23:53:56.447Z,10.80
2022-11-18T23:56:25.741Z,13.10
2022-11-18T23:58:55.051Z,9.67
